createdAt,value
2022-08-04T00:01:21.523Z,23.77
2022-08-04T00:03:56.451Z,23.76
2022-08-04T00:06:35.820Z,23.73
2022-08-04T00:09:09.037Z,23.67
2022-08-04T00:11:40.205Z,23.68
2022-08-04T00:14:14.704Z,23.68
2022-08-04T00:16:44.705Z,23.62
2022-08-04T00:19:17.378Z,23.57
2022-08-04T00:21:52.409Z,23.51
2022-08-04T00:24:23.029Z,23.48
2022-08-04T00:26:54.491Z,23.49
2022-08-04T00:29:24.567Z,23.41
2022-08-04T00:31:54.963Z,23.38
2022-08-04T00:34:27.580Z,23.35
2022-08-04T00:36:56.261Z,23.30
2022-08-04T00:39:24.647Z,23.26
2022-08-04T00:42:10.826Z,23.29
2022-08-04T00:44:55.977Z,23.24
2022-08-04T00:47:40.356Z,23.15
2022-08-04T00:50:13.426Z,23.18
2022-08-04T00:52:54.936Z,23.11
2022-08-04T00:55:51.759Z,23.13
2022-08-04T00:58:35.594Z,23.12
2022-08-04T01:01:07.466Z,23.07
2022-08-04T01:03:51.358Z,23.04
2022-08-04T01:06:31.536Z,23.05
2022-08-04T01:09:12.323Z,22.88
2022-08-04T01:12:13.649Z,22.89
2022-08-04T01:14:52.742Z,22.85
2022-08-04T01:17:26.507Z,22.76
2022-08-04T01:20:01.228Z,22.73
2022-08-04T01:22:51.467Z,22.74
2022-08-04T01:25:39.945Z,22.73
2022-08-04T01:28:29.091Z,22.73
2022-08-04T01:31:03.714Z,22.90
2022-08-04T01:33:58.580Z,23.00
2022-08-04T01:36:26.196Z,22.94
2022-08-04T01:38:55.793Z,22.80
2022-08-04T01:41:32.464Z,22.75
2022-08-04T01:44:02.440Z,22.67
2022-08-04T01:46:34.921Z,22.65
2022-08-04T01:49:03.907Z,22.55
2022-08-04T01:51:35.970Z,22.51
2022-08-04T01:54:03.683Z,22.47
2022-08-04T01:56:32.297Z,22.54
2022-08-04T01:59:03.859Z,22.52
2022-08-04T02:01:37.459Z,22.47
2022-08-04T02:04:18.728Z,22.45
2022-08-04T02:06:58.849Z,22.42
2022-08-04T02:09:54.398Z,22.50
2022-08-04T02:12:28.365Z,22.53
2022-08-04T02:15:03.951Z,22.55
2022-08-04T02:17:42.392Z,22.55
2022-08-04T02:20:13.923Z,22.51
2022-08-04T02:22:48.656Z,22.51
2022-08-04T02:25:23.441Z,22.48
2022-08-04T02:28:20.372Z,22.40
2022-08-04T02:30:54.953Z,22.39
2022-08-04T02:33:30.635Z,22.36
2022-08-04T02:36:02.418Z,22.34
2022-08-04T02:38:54.099Z,22.32
2022-08-04T02:41:24.052Z,22.27
2022-08-04T02:43:56.162Z,22.27
2022-08-04T02:46:25.109Z,22.26
2022-08-04T02:48:55.969Z,22.22
2022-08-04T02:51:25.821Z,22.18
2022-08-04T02:53:57.299Z,22.10
2022-08-04T02:56:26.109Z,22.06
2022-08-04T02:58:57.485Z,22.01
2022-08-04T03:01:25.306Z,21.96
2022-08-04T03:04:12.318Z,21.96
2022-08-04T03:07:14.290Z,21.95
2022-08-04T03:10:17.991Z,22.04
2022-08-04T03:13:03.409Z,22.10
2022-08-04T03:15:56.820Z,22.13
2022-08-04T03:18:57.208Z,22.22
2022-08-04T03:22:02.610Z,22.13
2022-08-04T03:25:05.434Z,22.24
2022-08-04T03:28:13.424Z,22.26
2022-08-04T03:30:59.324Z,22.21
2022-08-04T03:33:45.735Z,22.19
2022-08-04T03:36:48.720Z,22.23
2022-08-04T03:40:01.432Z,22.13
2022-08-04T03:42:53.091Z,22.13
2022-08-04T03:46:00.550Z,22.09
2022-08-04T03:48:57.100Z,22.10
2022-08-04T03:52:01.536Z,22.12
2022-08-04T03:55:20.067Z,22.18
2022-08-04T03:58:16.653Z,22.10
2022-08-04T04:00:57.528Z,22.19
2022-08-04T04:03:50.066Z,22.16
2022-08-04T04:06:48.960Z,22.13
2022-08-04T04:09:56.661Z,22.14
2022-08-04T04:12:48.290Z,22.13
2022-08-04T04:15:28.881Z,22.12
2022-08-04T04:18:17.612Z,22.02
2022-08-04T04:20:58.991Z,22.01
2022-08-04T04:23:41.639Z,21.98
2022-08-04T04:26:33.392Z,21.92
2022-08-04T04:29:19.128Z,21.81
2022-08-04T04:32:00.382Z,21.58
2022-08-04T04:34:45.871Z,21.47
2022-08-04T04:37:22.007Z,21.51
2022-08-04T04:40:09.268Z,21.53
2022-08-04T04:42:49.617Z,21.52
2022-08-04T04:45:25.733Z,21.55
2022-08-04T04:48:08.834Z,21.45
2022-08-04T04:50:48.276Z,21.35
2022-08-04T04:53:21.683Z,21.26
2022-08-04T04:56:06.656Z,21.14
2022-08-04T04:58:36.968Z,21.15
2022-08-04T05:01:34.283Z,21.15
2022-08-04T05:04:16.849Z,21.15
2022-08-04T05:07:07.419Z,21.25
2022-08-04T05:09:52.110Z,21.46
2022-08-04T05:14:30.815Z,21.53
2022-08-04T05:15:28.872Z,21.53
2022-08-04T05:17:59.853Z,21.46
2022-08-04T05:20:32.019Z,21.44
2022-08-04T05:23:03.457Z,21.50
2022-08-04T05:25:36.485Z,21.58
2022-08-04T05:28:10.947Z,21.67
2022-08-04T05:30:48.314Z,21.69
2022-08-04T05:33:24.846Z,21.82
2022-08-04T05:36:19.194Z,21.93
2022-08-04T05:38:52.000Z,21.99
2022-08-04T05:41:20.755Z,22.11
2022-08-04T05:43:49.985Z,22.21
2022-08-04T05:46:18.896Z,22.28
2022-08-04T05:48:48.552Z,22.35
2022-08-04T05:51:17.205Z,22.37
2022-08-04T05:53:47.075Z,22.40
2022-08-04T05:56:16.230Z,22.45
2022-08-04T05:58:45.693Z,22.48
2022-08-04T06:01:15.709Z,22.51
2022-08-04T06:03:44.900Z,22.57
2022-08-04T06:06:15.251Z,22.65
2022-08-04T06:08:43.057Z,22.79
2022-08-04T06:11:13.328Z,22.85
2022-08-04T06:13:50.093Z,22.97
2022-08-04T06:16:30.152Z,23.06
2022-08-04T06:20:03.911Z,23.17
2022-08-04T06:21:53.743Z,23.27
2022-08-04T06:24:24.585Z,23.36
2022-08-04T06:26:52.861Z,23.42
2022-08-04T06:29:24.721Z,23.51
2022-08-04T06:32:27.107Z,23.61
2022-08-04T06:35:02.502Z,23.77
2022-08-04T06:37:42.346Z,23.89
2022-08-04T06:40:30.484Z,24.02
2022-08-04T06:43:01.654Z,24.15
2022-08-04T06:45:29.811Z,24.25
2022-08-04T06:47:58.137Z,24.37
2022-08-04T06:51:26.910Z,24.47
2022-08-04T06:53:16.003Z,24.58
2022-08-04T06:55:45.775Z,24.70
2022-08-04T06:58:14.477Z,24.79
2022-08-04T07:00:44.289Z,24.93
2022-08-04T07:03:12.566Z,25.04
2022-08-04T07:05:41.870Z,25.17
2022-08-04T07:08:11.259Z,25.32
2022-08-04T07:10:40.859Z,25.45
2022-08-04T07:13:09.414Z,25.57
2022-08-04T07:15:39.945Z,25.73
2022-08-04T07:18:07.592Z,25.84
2022-08-04T07:20:36.954Z,25.95
2022-08-04T07:23:06.472Z,26.06
2022-08-04T07:25:59.866Z,26.17
2022-08-04T07:28:27.267Z,26.33
2022-08-04T07:30:56.820Z,26.48
2022-08-04T07:33:25.767Z,26.58
2022-08-04T07:36:09.038Z,26.69
2022-08-04T07:38:48.756Z,26.80
2022-08-04T07:41:38.695Z,26.94
2022-08-04T07:44:08.634Z,27.09
2022-08-04T07:46:36.705Z,27.15
2022-08-04T07:49:05.166Z,27.29
2022-08-04T07:51:35.209Z,27.35
2022-08-04T07:54:03.883Z,27.41
2022-08-04T07:56:32.281Z,27.49
2022-08-04T07:59:01.341Z,27.56
2022-08-04T08:01:30.884Z,27.66
2022-08-04T08:04:00.510Z,27.77
2022-08-04T08:06:32.713Z,27.85
2022-08-04T08:09:13.357Z,28.02
2022-08-04T08:12:36.638Z,28.12
2022-08-04T08:14:31.364Z,28.22
2022-08-04T08:17:02.264Z,28.31
2022-08-04T08:19:30.373Z,28.40
2022-08-04T08:22:00.608Z,28.46
2022-08-04T08:24:30.043Z,28.53
2022-08-04T08:26:58.139Z,28.61
2022-08-04T08:29:27.125Z,28.71
2022-08-04T08:31:59.527Z,28.76
2022-08-04T08:34:33.474Z,28.88
2022-08-04T08:37:08.753Z,28.96
2022-08-04T08:39:40.804Z,29.04
2022-08-04T08:42:48.051Z,29.12
2022-08-04T08:45:51.265Z,29.19
2022-08-04T08:48:41.771Z,29.28
2022-08-04T08:51:32.370Z,29.35
2022-08-04T08:54:36.261Z,29.38
2022-08-04T08:57:21.025Z,29.44
2022-08-04T09:00:06.037Z,29.57
2022-08-04T09:03:06.294Z,29.72
2022-08-04T09:05:56.351Z,29.81
2022-08-04T09:08:49.086Z,29.86
2022-08-04T09:11:21.826Z,29.98
2022-08-04T09:13:55.392Z,30.03
2022-08-04T09:16:32.282Z,30.02
2022-08-04T09:19:05.361Z,30.14
2022-08-04T09:21:34.845Z,30.30
2022-08-04T09:24:36.858Z,30.35
2022-08-04T09:27:03.201Z,30.41
2022-08-04T09:29:41.048Z,30.38
2022-08-04T09:32:15.100Z,30.46
2022-08-04T09:35:03.273Z,30.57
2022-08-04T09:37:46.084Z,30.71
2022-08-04T09:40:31.454Z,30.88
2022-08-04T09:43:21.553Z,31.03
2022-08-04T09:46:00.063Z,31.06
2022-08-04T09:48:36.197Z,31.13
2022-08-04T09:51:15.317Z,31.37
2022-08-04T09:53:53.697Z,31.52
2022-08-04T09:56:29.228Z,31.57
2022-08-04T09:59:09.076Z,31.56
2022-08-04T10:01:39.489Z,31.63
2022-08-04T10:04:12.058Z,31.71
2022-08-04T10:07:10.561Z,31.89
2022-08-04T10:09:51.232Z,32.04
2022-08-04T10:12:36.577Z,32.19
2022-08-04T10:15:16.037Z,32.36
2022-08-04T10:18:03.662Z,32.63
2022-08-04T10:21:06.209Z,32.91
2022-08-04T10:23:56.567Z,33.15
2022-08-04T10:26:37.648Z,33.34
2022-08-04T10:29:11.989Z,33.58
2022-08-04T10:31:45.739Z,33.66
2022-08-04T10:34:18.864Z,33.89
2022-08-04T10:36:54.419Z,34.15
2022-08-04T10:39:42.743Z,34.30
2022-08-04T10:42:20.232Z,34.50
2022-08-04T10:44:59.504Z,34.72
2022-08-04T10:47:34.749Z,34.83
2022-08-04T10:50:03.770Z,34.88
2022-08-04T10:52:34.999Z,35.03
2022-08-04T10:55:09.352Z,35.10
2022-08-04T10:57:40.595Z,35.14
2022-08-04T11:00:14.703Z,35.26
2022-08-04T11:02:51.978Z,35.49
2022-08-04T11:05:26.435Z,35.47
2022-08-04T11:08:00.983Z,35.61
2022-08-04T11:10:34.049Z,35.66
2022-08-04T11:13:06.676Z,35.88
2022-08-04T11:15:55.356Z,36.24
2022-08-04T11:18:33.324Z,36.19
2022-08-04T11:21:08.795Z,36.29
2022-08-04T11:23:40.205Z,36.31
2022-08-04T11:26:14.043Z,36.45
2022-08-04T11:28:58.461Z,36.21
2022-08-04T11:31:37.077Z,36.27
2022-08-04T11:34:15.789Z,36.58
2022-08-04T11:36:50.592Z,36.82
2022-08-04T11:39:28.564Z,36.96
2022-08-04T11:42:01.343Z,37.23
2022-08-04T11:44:31.360Z,37.51
2022-08-04T11:47:05.687Z,37.70
2022-08-04T11:49:56.677Z,38.08
2022-08-04T11:52:27.918Z,38.59
2022-08-04T11:54:57.016Z,38.76
2022-08-04T11:57:35.126Z,38.26
2022-08-04T12:00:07.713Z,38.62
2022-08-04T12:03:12.030Z,38.67
2022-08-04T12:05:53.444Z,38.78
2022-08-04T12:08:34.229Z,39.06
2022-08-04T12:11:22.613Z,39.25
2022-08-04T12:14:05.282Z,39.87
2022-08-04T12:16:37.481Z,39.38
2022-08-04T12:19:15.372Z,39.46
2022-08-04T12:21:53.141Z,39.45
2022-08-04T12:24:29.310Z,39.70
2022-08-04T12:26:59.367Z,39.95
2022-08-04T12:29:32.448Z,40.41
2022-08-04T12:32:08.290Z,41.03
2022-08-04T12:34:41.640Z,41.64
2022-08-04T12:37:21.977Z,42.08
2022-08-04T12:40:28.980Z,42.42
2022-08-04T12:42:56.413Z,42.90
2022-08-04T12:45:28.676Z,43.07
2022-08-04T12:47:59.872Z,43.40
2022-08-04T12:50:28.001Z,43.47
2022-08-04T12:53:03.538Z,43.42
2022-08-04T12:55:34.815Z,43.12
2022-08-04T12:58:03.743Z,43.32
2022-08-04T13:00:41.730Z,42.21
2022-08-04T13:03:13.122Z,42.63
2022-08-04T13:05:42.696Z,43.35
2022-08-04T13:08:13.565Z,44.41
2022-08-04T13:10:43.585Z,44.62
2022-08-04T13:13:17.664Z,45.38
2022-08-04T13:15:56.483Z,46.43
2022-08-04T13:18:30.028Z,46.97
2022-08-04T13:21:20.133Z,47.47
2022-08-04T13:24:19.558Z,46.39
2022-08-04T13:26:55.135Z,46.45
2022-08-04T13:30:00.675Z,46.58
2022-08-04T13:32:17.841Z,47.01
2022-08-04T13:34:49.142Z,47.60
2022-08-04T13:37:22.128Z,48.57
2022-08-04T13:39:55.217Z,49.47
2022-08-04T13:42:26.617Z,49.84
2022-08-04T13:44:58.201Z,49.55
2022-08-04T13:47:30.784Z,49.59
2022-08-04T13:50:12.119Z,47.71
2022-08-04T13:52:41.459Z,46.30
2022-08-04T13:55:20.424Z,46.44
2022-08-04T13:57:51.675Z,46.51
2022-08-04T14:00:29.217Z,46.47
2022-08-04T14:03:01.943Z,46.57
2022-08-04T14:05:36.908Z,47.00
2022-08-04T14:08:25.393Z,47.10
2022-08-04T14:10:58.589Z,47.28
2022-08-04T14:13:41.510Z,47.78
2022-08-04T14:16:18.269Z,46.79
2022-08-04T14:18:47.016Z,47.27
2022-08-04T14:21:16.475Z,47.98
2022-08-04T14:23:48.211Z,48.40
2022-08-04T14:26:33.357Z,48.98
2022-08-04T14:29:27.890Z,49.36
2022-08-04T14:32:03.228Z,49.57
2022-08-04T14:34:33.520Z,49.59
2022-08-04T14:37:16.960Z,49.87
2022-08-04T14:40:19.112Z,48.32
2022-08-04T14:42:55.376Z,48.35
2022-08-04T14:45:31.839Z,48.34
2022-08-04T14:48:00.484Z,48.61
2022-08-04T14:50:36.908Z,48.64
2022-08-04T14:53:07.091Z,48.79
2022-08-04T14:55:37.351Z,49.08
2022-08-04T14:58:35.741Z,49.27
2022-08-04T15:00:57.331Z,50.01
2022-08-04T15:03:25.637Z,50.24
2022-08-04T15:06:00.772Z,50.77
2022-08-04T15:08:32.267Z,49.47
2022-08-04T15:11:02.987Z,49.36
2022-08-04T15:13:33.267Z,49.46
2022-08-04T15:16:07.986Z,49.69
2022-08-04T15:18:39.546Z,49.50
2022-08-04T15:21:08.608Z,49.53
2022-08-04T15:23:39.344Z,51.18
2022-08-04T15:26:09.394Z,52.79
2022-08-04T15:28:40.731Z,53.78
2022-08-04T15:32:04.522Z,54.88
2022-08-04T15:33:58.639Z,55.94
2022-08-04T15:36:36.015Z,56.40
2022-08-04T15:39:11.569Z,55.08
2022-08-04T15:41:55.254Z,55.96
2022-08-04T15:44:58.547Z,56.75
2022-08-04T15:47:28.019Z,56.34
2022-08-04T15:50:07.735Z,56.09
2022-08-04T15:53:12.429Z,56.26
2022-08-04T15:55:43.166Z,56.87
2022-08-04T15:58:12.914Z,57.52
2022-08-04T16:01:15.368Z,57.93
2022-08-04T16:03:53.166Z,58.77
2022-08-04T16:06:45.147Z,59.36
2022-08-04T16:09:45.782Z,59.54
2022-08-04T16:12:54.530Z,58.72
2022-08-04T16:15:38.188Z,56.89
2022-08-04T16:18:12.113Z,57.46
2022-08-04T16:20:47.419Z,56.85
2022-08-04T16:24:06.071Z,56.11
2022-08-04T16:26:54.850Z,54.77
2022-08-04T16:29:45.368Z,53.35
2022-08-04T16:32:22.063Z,52.58
2022-08-04T16:34:56.384Z,53.66
2022-08-04T16:37:31.415Z,54.98
2022-08-04T16:40:37.062Z,54.25
2022-08-04T16:43:08.781Z,54.31
2022-08-04T16:45:50.993Z,55.06
2022-08-04T16:48:20.111Z,56.06
2022-08-04T16:50:54.128Z,54.90
2022-08-04T16:54:02.763Z,54.16
2022-08-04T16:56:15.248Z,55.23
2022-08-04T16:58:53.106Z,55.68
2022-08-04T17:01:32.653Z,54.76
2022-08-04T17:04:04.933Z,55.68
2022-08-04T17:06:35.648Z,56.43
2022-08-04T17:09:11.401Z,57.12
2022-08-04T17:11:39.294Z,56.90
2022-08-04T17:14:07.872Z,55.33
2022-08-04T17:16:39.179Z,54.69
2022-08-04T17:19:20.367Z,54.93
2022-08-04T17:22:02.322Z,53.64
2022-08-04T17:24:34.115Z,53.70
2022-08-04T17:27:02.125Z,53.01
2022-08-04T17:29:42.830Z,52.40
2022-08-04T17:32:18.588Z,51.80
2022-08-04T17:34:50.842Z,51.15
2022-08-04T17:37:41.142Z,51.15
2022-08-04T17:40:13.945Z,51.21
2022-08-04T17:42:42.470Z,50.65
2022-08-04T17:48:02.964Z,47.52
2022-08-04T17:50:35.715Z,46.17
2022-08-04T17:53:12.200Z,44.83
2022-08-04T17:55:43.461Z,43.78
2022-08-04T17:58:21.573Z,43.42
2022-08-04T18:01:10.750Z,43.64
2022-08-04T18:03:53.428Z,44.03
2022-08-04T18:06:25.504Z,43.65
2022-08-04T18:08:58.009Z,42.71
2022-08-04T18:11:29.767Z,41.59
2022-08-04T18:14:10.638Z,40.58
2022-08-04T18:16:46.337Z,39.80
2022-08-04T18:19:18.713Z,38.87
2022-08-04T18:21:59.250Z,38.11
2022-08-04T18:24:35.148Z,37.38
2022-08-04T18:27:21.792Z,36.63
2022-08-04T18:30:14.609Z,36.23
2022-08-04T18:32:37.425Z,35.63
2022-08-04T18:35:19.340Z,35.27
2022-08-04T18:38:06.466Z,34.91
2022-08-04T18:40:52.306Z,34.63
2022-08-04T18:43:28.748Z,34.44
2022-08-04T18:45:59.585Z,34.18
2022-08-04T18:48:36.075Z,33.95
2022-08-04T18:51:10.734Z,33.75
2022-08-04T18:53:55.117Z,33.38
2022-08-04T18:56:29.771Z,33.11
2022-08-04T18:59:01.408Z,32.82
2022-08-04T19:02:12.673Z,32.53
2022-08-04T19:04:32.829Z,32.26
2022-08-04T19:07:29.531Z,32.12
2022-08-04T19:12:39.761Z,31.81
2022-08-04T19:15:11.473Z,31.65
2022-08-04T19:17:53.532Z,31.48
2022-08-04T19:20:26.555Z,31.25
2022-08-04T19:24:10.651Z,31.13
2022-08-04T19:26:03.950Z,30.93
2022-08-04T19:28:35.416Z,30.76
2022-08-04T19:31:06.174Z,30.60
2022-08-04T19:33:58.590Z,30.37
2022-08-04T19:36:27.897Z,30.19
2022-08-04T19:39:11.632Z,30.05
2022-08-04T19:42:06.567Z,29.81
2022-08-04T19:44:30.234Z,29.66
2022-08-04T19:47:00.462Z,29.58
2022-08-04T19:50:03.814Z,29.51
2022-08-04T19:52:33.658Z,29.45
2022-08-04T19:55:09.923Z,29.34
2022-08-04T19:57:43.916Z,29.31
2022-08-04T20:00:17.349Z,29.27
2022-08-04T20:03:02.907Z,29.23
2022-08-04T20:05:52.652Z,29.19
2022-08-04T20:08:23.978Z,29.05
2022-08-04T20:10:54.749Z,28.94
2022-08-04T20:13:25.539Z,28.82
2022-08-04T20:16:01.441Z,28.73
2022-08-04T20:18:35.685Z,28.59
2022-08-04T20:21:11.275Z,28.48
2022-08-04T20:23:50.009Z,28.43
2022-08-04T20:26:17.892Z,28.39
2022-08-04T20:28:45.862Z,28.34
2022-08-04T20:31:18.333Z,28.30
2022-08-04T20:33:49.377Z,28.25
2022-08-04T20:36:21.675Z,28.13
2022-08-04T20:38:52.657Z,28.09
2022-08-04T20:41:20.867Z,28.02
2022-08-04T20:47:54.016Z,27.89
2022-08-04T20:50:29.524Z,27.87
2022-08-04T20:52:58.486Z,27.80
2022-08-04T20:55:26.566Z,27.75
2022-08-04T20:58:02.617Z,27.67
2022-08-04T21:00:31.320Z,27.58
2022-08-04T21:02:59.056Z,27.53
2022-08-04T21:05:28.337Z,27.46
2022-08-04T21:07:57.265Z,27.41
2022-08-04T21:10:25.759Z,27.36
2022-08-04T21:12:54.262Z,27.29
2022-08-04T21:15:25.513Z,27.27
2022-08-04T21:20:43.392Z,27.12
2022-08-04T21:23:11.111Z,26.96
2022-08-04T21:25:43.637Z,26.86
2022-08-04T21:28:11.837Z,26.83
2022-08-04T21:30:54.245Z,26.80
2022-08-04T21:33:24.560Z,26.80
2022-08-04T21:36:13.910Z,26.71
2022-08-04T21:38:41.964Z,26.69
2022-08-04T21:41:24.310Z,26.62
2022-08-04T21:43:52.912Z,26.54
2022-08-04T21:46:20.955Z,26.51
2022-08-04T21:48:49.278Z,26.44
2022-08-04T21:51:56.832Z,26.43
2022-08-04T21:54:09.840Z,26.35
2022-08-04T21:56:42.863Z,26.28
2022-08-04T21:59:23.532Z,26.27
2022-08-04T22:01:58.086Z,26.24
2022-08-04T22:04:28.093Z,26.17
2022-08-04T22:06:57.028Z,26.10
2022-08-04T22:09:24.660Z,26.09
2022-08-04T22:11:56.537Z,26.00
2022-08-04T22:14:29.060Z,25.95
2022-08-04T22:16:57.710Z,25.89
2022-08-04T22:22:25.397Z,25.71
2022-08-04T22:24:54.825Z,25.67
2022-08-04T22:27:36.420Z,25.67
2022-08-04T22:30:13.362Z,25.60
2022-08-04T22:32:45.341Z,25.53
2022-08-04T22:35:36.169Z,25.47
2022-08-04T22:38:07.842Z,25.44
2022-08-04T22:40:57.249Z,25.42
2022-08-04T22:43:33.315Z,25.39
2022-08-04T22:46:05.322Z,25.44
2022-08-04T22:48:34.762Z,25.49
2022-08-04T22:51:04.447Z,25.54
2022-08-04T22:53:35.565Z,25.54
2022-08-04T22:56:09.574Z,25.57
2022-08-04T22:58:39.924Z,25.65
2022-08-04T23:01:08.623Z,25.67
2022-08-04T23:03:38.602Z,25.61
2022-08-04T23:06:10.866Z,25.60
2022-08-04T23:08:46.487Z,25.61
2022-08-04T23:11:14.673Z,25.52
2022-08-04T23:13:42.628Z,25.43
2022-08-04T23:16:11.036Z,25.34
2022-08-04T23:18:42.171Z,25.35
2022-08-04T23:21:13.999Z,25.32
2022-08-04T23:23:55.642Z,24.95
2022-08-04T23:26:30.575Z,24.90
2022-08-04T23:28:58.573Z,24.83
2022-08-04T23:31:40.546Z,24.76
2022-08-04T23:34:12.062Z,24.72
2022-08-04T23:36:40.583Z,24.80
2022-08-04T23:39:09.577Z,24.82
2022-08-04T23:41:53.987Z,24.80
2022-08-04T23:44:25.119Z,24.70
2022-08-04T23:46:58.864Z,24.63
2022-08-04T23:49:43.785Z,24.56
2022-08-04T23:52:23.550Z,24.47
2022-08-04T23:55:00.043Z,24.44
2022-08-04T23:57:31.530Z,24.39
